Terminal Aerodrome Forecast
Issued by NWS

Home | Current Version | Previous Version | Graphics & Text | Print | Product List | Glossary Off
Versions: 1 2 3 4 5 6 7 8 9 10 11 12 13 14 15 16 17 18 19 20

000
FTUS43 KGRB 270500
TAFCWA
TAF
KCWA 270525Z 2706/2806 34006KT P6SM SCT040
      TEMPO 2706/2709 BKN040
     FM271500 35007KT P6SM FEW030
     FM272200 03003KT P6SM SKC
      AMD LTD TO CLD VIS AND WIND TIL 271200=

USA.gov is the U.S. government's official web portal to all federal, state and local government web resources and services.